Goshen, Virginia
Current Conditions -  °F | °C
As of 12:55 AM on Monday 20 Oct 2014 (Local Time) from KHSP Reporting Station
Clear Clear  
Wind Chill: 33°   Ceiling: Unl
Heat Index: 40°   Visibility: 10mi
Dew Point: 23°   Wind: 9mph
Humidity: 51%   Direction: 240°WSW
Pressure: 30.09"   Gusts: NA
Location:  37.99°N, 79.5°W
Report Text: KHSP 200455Z AUTO 24008KT 10SM CLR 04/M05 A3009 RMK AO2 T00421051 400950020
Loading
Personal Weather Stations






























Interactive Weather Map
Tropical Storm Tracking
New forecast layout! Learn more

10-Day Weather Forecast

Advertisements
Track Severe Weather on mobile